Wellington, New Zealand
Current Conditions -  °F | °C
As of 12:00 PM on Monday 22 Dec 2014 (Local Time) from NZWN Reporting Station
Overcast Overcast  
Wind Chill: 61°   Ceiling: 3400
Heat Index: 61°   Visibility: 6mi
Dew Point: 55°   Wind: 7mph
Humidity: 82%   Direction: 190°S
Pressure: 30.09"   Gusts: NA
Location:  41.29°S, 174.78°E
Report Text: NZWN 220000Z AUTO 19006KT 9999 SCT021/// BKN034/// OVC044///16/13 Q1019 NOSIG
Loading
Personal Weather Stations






























Interactive Weather Map New forecast layout! Learn more

10-Day Weather Forecast

Advertisements
Track Severe Weather on mobile